createdAt,value
2019-04-14T00:00:32.299Z,10.43
2019-04-14T00:03:19.301Z,10.67
2019-04-14T00:05:47.464Z,9.50
2019-04-14T00:08:13.495Z,9.53
2019-04-14T00:10:40.025Z,10.00
2019-04-14T00:13:06.787Z,8.10
2019-04-14T00:15:39.590Z,10.57
2019-04-14T00:18:01.062Z,10.10
2019-04-14T00:20:27.460Z,10.10
2019-04-14T00:22:53.522Z,10.90
2019-04-14T00:25:19.591Z,11.07
2019-04-14T00:27:45.631Z,8.77
2019-04-14T00:30:11.968Z,9.80
2019-04-14T00:32:48.905Z,9.80
2019-04-14T00:35:19.578Z,10.20
2019-04-14T00:37:53.428Z,8.80
2019-04-14T00:40:27.007Z,9.27
2019-04-14T00:42:58.166Z,11.83
2019-04-14T00:45:38.295Z,10.10
2019-04-14T00:48:05.645Z,10.40
2019-04-14T00:50:27.623Z,10.73
2019-04-14T00:52:54.533Z,10.47
2019-04-14T00:55:20.928Z,10.87
2019-04-14T00:57:48.679Z,8.93
2019-04-14T01:00:18.806Z,9.63
2019-04-14T01:02:45.178Z,10.03
2019-04-14T01:05:15.083Z,11.00
2019-04-14T01:07:43.344Z,11.93
2019-04-14T01:10:12.673Z,10.53
2019-04-14T01:12:38.833Z,10.20
2019-04-14T01:15:11.575Z,10.33
2019-04-14T01:17:48.546Z,9.17
2019-04-14T01:20:17.276Z,10.30
2019-04-14T01:22:46.712Z,10.47
2019-04-14T01:25:15.050Z,10.83
2019-04-14T01:27:41.071Z,9.17
2019-04-14T01:30:11.200Z,9.73
2019-04-14T01:32:41.454Z,9.60
2019-04-14T01:35:09.674Z,9.73
2019-04-14T01:37:39.798Z,9.87
2019-04-14T01:40:07.757Z,9.80
2019-04-14T01:42:35.687Z,9.73
2019-04-14T01:45:03.638Z,9.93
2019-04-14T01:47:35.541Z,9.83
2019-04-14T01:50:02.228Z,10.80
2019-04-14T01:52:30.551Z,8.73
2019-04-14T01:54:58.495Z,8.43
2019-04-14T01:57:33.246Z,9.20
2019-04-14T02:00:01.170Z,9.73
2019-04-14T02:02:29.053Z,9.47
2019-04-14T02:04:55.552Z,10.37
2019-04-14T02:07:21.723Z,8.57
2019-04-14T02:09:48.918Z,9.67
2019-04-14T02:12:15.288Z,11.60
2019-04-14T02:15:02.872Z,10.43
2019-04-14T02:17:28.539Z,9.33
2019-04-14T02:19:54.784Z,10.53
2019-04-14T02:22:20.787Z,9.77
2019-04-14T02:24:48.100Z,11.03
2019-04-14T02:27:14.293Z,9.53
2019-04-14T02:29:40.766Z,10.03
2019-04-14T02:32:36.494Z,8.40
2019-04-14T02:35:02.160Z,9.53
2019-04-14T02:37:26.687Z,11.13
2019-04-14T02:44:53.304Z,10.20
2019-04-14T02:47:45.240Z,10.77
2019-04-14T02:49:51.414Z,11.03
2019-04-14T02:52:19.766Z,10.63
2019-04-14T02:54:53.698Z,10.63
2019-04-14T02:57:17.697Z,10.93
2019-04-14T02:59:45.334Z,9.03
2019-04-14T03:04:38.668Z,10.70
2019-04-14T03:07:08.689Z,10.47
2019-04-14T03:12:07.146Z,9.77
2019-04-14T03:14:35.978Z,9.53
2019-04-14T03:17:14.614Z,10.47
2019-04-14T03:20:02.353Z,9.53
2019-04-14T03:22:31.273Z,8.53
2019-04-14T03:24:41.715Z,8.90
2019-04-14T03:27:30.583Z,10.97
2019-04-14T03:29:58.375Z,9.73
2019-04-14T03:35:15.716Z,10.60
2019-04-14T03:37:44.557Z,9.30
2019-04-14T03:42:22.918Z,10.10
2019-04-14T03:44:49.513Z,9.40
2019-04-14T03:47:19.636Z,9.93
2019-04-14T03:49:45.165Z,21.97
2019-04-14T03:52:02.505Z,14.03
2019-04-14T03:54:36.564Z,9.43
2019-04-14T03:56:46.700Z,10.47
2019-04-14T03:59:13.037Z,9.87
2019-04-14T04:01:39.191Z,10.07
2019-04-14T04:04:05.452Z,9.50
2019-04-14T04:06:31.459Z,10.13
2019-04-14T04:08:57.522Z,9.57
2019-04-14T04:11:24.019Z,10.03
2019-04-14T04:13:50.036Z,9.10
2019-04-14T04:16:18.088Z,9.50
2019-04-14T04:18:54.140Z,9.47
2019-04-14T04:21:29.143Z,8.70
2019-04-14T04:23:57.573Z,9.40
2019-04-14T04:26:25.802Z,8.70
2019-04-14T04:28:54.052Z,8.73
2019-04-14T04:31:24.740Z,9.57
2019-04-14T04:33:52.666Z,9.43
2019-04-14T04:36:20.579Z,9.90
2019-04-14T04:38:49.014Z,11.27
2019-04-14T04:41:15.022Z,9.73
2019-04-14T04:43:41.034Z,10.97
2019-04-14T04:46:07.059Z,17.70
2019-04-14T04:48:33.083Z,14.53
2019-04-14T04:50:59.161Z,12.37
2019-04-14T04:53:26.713Z,12.53
2019-04-14T04:55:52.999Z,12.87
2019-04-14T04:58:19.493Z,10.23
2019-04-14T05:00:48.542Z,9.07
2019-04-14T05:03:14.626Z,9.57
2019-04-14T05:06:02.915Z,8.83
2019-04-14T05:08:29.025Z,9.47
2019-04-14T05:10:59.523Z,8.33
2019-04-14T05:13:27.044Z,9.83
2019-04-14T05:15:55.269Z,8.97
2019-04-14T05:18:22.249Z,8.13
2019-04-14T05:20:48.807Z,9.20
2019-04-14T05:23:14.914Z,9.17
2019-04-14T05:25:40.927Z,10.10
2019-04-14T05:28:07.023Z,8.73
2019-04-14T05:30:33.305Z,8.60
2019-04-14T05:32:59.343Z,9.27
2019-04-14T05:35:27.373Z,9.93
2019-04-14T05:37:53.398Z,9.10
2019-04-14T05:40:19.450Z,9.50
2019-04-14T05:42:47.240Z,8.97
2019-04-14T05:45:13.422Z,8.93
2019-04-14T05:47:39.485Z,8.50
2019-04-14T05:50:07.231Z,8.47
2019-04-14T05:52:33.957Z,8.10
2019-04-14T05:55:00.123Z,8.20
2019-04-14T05:57:26.360Z,7.57
2019-04-14T05:59:52.750Z,8.23
2019-04-14T06:02:20.140Z,8.30
2019-04-14T06:04:46.417Z,8.30
2019-04-14T06:07:12.428Z,7.80
2019-04-14T06:09:38.538Z,8.03
2019-04-14T06:12:04.738Z,7.50
2019-04-14T06:14:31.296Z,7.20
2019-04-14T06:16:57.307Z,7.90
2019-04-14T06:19:23.335Z,8.50
2019-04-14T06:21:49.352Z,8.93
2019-04-14T06:24:15.362Z,8.53
2019-04-14T06:26:41.398Z,20.97
2019-04-14T06:29:07.466Z,7.97
2019-04-14T06:31:35.451Z,7.70
2019-04-14T06:34:03.391Z,8.13
2019-04-14T06:36:40.064Z,7.27
2019-04-14T06:39:14.231Z,6.93
2019-04-14T06:41:40.251Z,6.63
2019-04-14T06:44:06.606Z,6.80
2019-04-14T06:46:32.935Z,6.50
2019-04-14T06:48:58.954Z,6.77
2019-04-14T06:51:24.978Z,7.00
2019-04-14T06:53:51.030Z,6.50
2019-04-14T06:56:17.043Z,7.10
2019-04-14T06:58:43.057Z,6.70
2019-04-14T07:01:10.439Z,5.90
2019-04-14T07:03:36.503Z,5.73
2019-04-14T07:06:02.796Z,6.30
2019-04-14T07:08:30.006Z,6.20
2019-04-14T07:10:56.130Z,6.57
2019-04-14T07:13:22.143Z,5.97
2019-04-14T07:15:48.719Z,6.40
2019-04-14T07:18:14.735Z,5.37
2019-04-14T07:20:40.759Z,6.33
2019-04-14T07:23:08.444Z,6.23
2019-04-14T07:25:34.507Z,6.03
2019-04-14T07:28:00.523Z,5.67
2019-04-14T07:30:31.171Z,5.77
2019-04-14T07:33:15.419Z,6.47
2019-04-14T07:35:49.272Z,6.13
2019-04-14T07:38:17.191Z,5.03
2019-04-14T07:41:00.635Z,5.13
2019-04-14T07:43:45.075Z,5.67
2019-04-14T07:46:28.147Z,5.87
2019-04-14T07:48:58.778Z,5.53
2019-04-14T07:51:38.735Z,6.33
2019-04-14T07:54:06.666Z,6.47
2019-04-14T07:56:34.649Z,5.60
2019-04-14T07:59:02.765Z,10.70
2019-04-14T08:01:39.321Z,5.67
2019-04-14T08:04:13.109Z,7.13
2019-04-14T08:06:47.052Z,6.00
2019-04-14T08:09:17.028Z,6.17
2019-04-14T08:11:43.094Z,5.20
2019-04-14T08:14:09.144Z,5.50
2019-04-14T08:16:36.447Z,5.67
2019-04-14T08:19:02.467Z,5.73
2019-04-14T08:21:28.493Z,5.23
2019-04-14T08:23:54.517Z,4.83
2019-04-14T08:26:20.538Z,6.30
2019-04-14T08:28:46.543Z,5.00
2019-04-14T08:31:12.580Z,4.53
2019-04-14T08:33:38.755Z,15.13
2019-04-14T08:36:04.765Z,11.67
2019-04-14T08:38:30.903Z,4.13
2019-04-14T08:40:56.953Z,5.13
2019-04-14T08:43:31.483Z,4.97
2019-04-14T08:46:05.319Z,5.60
2019-04-14T08:48:45.167Z,4.93
2019-04-14T08:51:13.161Z,6.00
2019-04-14T08:53:43.896Z,5.67
2019-04-14T08:56:28.847Z,5.97
2019-04-14T08:59:13.400Z,6.83
2019-04-14T09:01:58.771Z,6.00
2019-04-14T09:04:41.237Z,6.10
2019-04-14T09:07:15.187Z,5.43
2019-04-14T09:09:48.651Z,5.30
2019-04-14T09:12:19.716Z,6.60
2019-04-14T09:14:57.157Z,8.40
2019-04-14T09:17:20.954Z,6.83
2019-04-14T09:19:46.995Z,6.17
2019-04-14T09:22:21.288Z,7.10
2019-04-14T09:24:54.053Z,6.43
2019-04-14T09:27:22.049Z,5.80
2019-04-14T09:29:48.182Z,5.90
2019-04-14T09:32:16.484Z,6.27
2019-04-14T09:34:57.534Z,6.33
2019-04-14T09:37:25.324Z,6.07
2019-04-14T09:39:51.362Z,6.80
2019-04-14T09:42:19.311Z,6.43
2019-04-14T09:44:53.275Z,5.87
2019-04-14T09:47:27.740Z,5.87
2019-04-14T09:50:05.011Z,6.13
2019-04-14T09:52:36.393Z,5.10
2019-04-14T09:55:12.831Z,5.50
2019-04-14T09:57:52.403Z,5.27
2019-04-14T10:00:21.931Z,5.97
2019-04-14T10:02:51.898Z,4.93
2019-04-14T10:05:26.613Z,6.10
2019-04-14T10:08:02.838Z,5.50
2019-04-14T10:10:39.905Z,6.47
2019-04-14T10:13:06.117Z,5.70
2019-04-14T10:15:32.120Z,6.23
2019-04-14T10:18:01.658Z,6.07
2019-04-14T10:20:28.033Z,5.77
2019-04-14T10:22:54.047Z,6.27
2019-04-14T10:25:20.071Z,6.20
2019-04-14T10:27:46.183Z,7.70
2019-04-14T10:30:12.195Z,8.50
2019-04-14T10:32:38.244Z,8.57
2019-04-14T10:35:04.724Z,7.80
2019-04-14T10:37:30.756Z,8.33
2019-04-14T10:39:56.788Z,8.43
2019-04-14T10:42:22.862Z,8.37
2019-04-14T10:44:48.908Z,7.93
2019-04-14T10:47:15.008Z,7.70
2019-04-14T10:49:41.119Z,8.30
2019-04-14T10:52:07.261Z,13.10
2019-04-14T10:54:33.285Z,6.73
2019-04-14T10:57:07.350Z,7.43
2019-04-14T10:59:33.410Z,7.70
2019-04-14T11:01:59.462Z,8.20
2019-04-14T11:04:28.144Z,7.23
2019-04-14T11:06:56.126Z,6.90
2019-04-14T11:09:25.225Z,7.70
2019-04-14T11:11:51.302Z,7.37
2019-04-14T11:14:21.988Z,7.73
2019-04-14T11:16:48.070Z,7.07
2019-04-14T11:19:16.089Z,6.63
2019-04-14T11:21:43.110Z,6.30
2019-04-14T11:24:09.255Z,7.07
2019-04-14T11:26:36.984Z,7.83
2019-04-14T11:32:10.173Z,6.40
2019-04-14T11:34:42.811Z,6.63
2019-04-14T11:37:16.327Z,7.47
2019-04-14T11:39:44.315Z,19.90
2019-04-14T11:42:10.345Z,21.40
2019-04-14T11:44:36.496Z,8.53
2019-04-14T11:47:03.024Z,6.57
2019-04-14T11:49:29.049Z,6.50
2019-04-14T11:51:55.848Z,6.30
2019-04-14T11:54:22.485Z,6.63
2019-04-14T11:56:48.856Z,6.73
2019-04-14T11:59:14.919Z,6.47
2019-04-14T12:01:48.720Z,6.93
2019-04-14T12:04:22.215Z,7.27
2019-04-14T12:06:59.013Z,6.33
2019-04-14T12:09:29.752Z,6.73
2019-04-14T12:11:55.861Z,6.63
2019-04-14T12:14:21.947Z,7.03
2019-04-14T12:16:48.290Z,7.87
2019-04-14T12:19:14.335Z,7.20
2019-04-14T12:21:40.631Z,5.73
2019-04-14T12:24:06.975Z,7.13
2019-04-14T12:26:32.983Z,5.57
2019-04-14T12:29:01.607Z,6.17
2019-04-14T12:31:27.015Z,6.60
2019-04-14T12:33:53.054Z,7.13
2019-04-14T12:36:19.677Z,7.43
2019-04-14T12:38:46.143Z,7.20
2019-04-14T12:41:15.382Z,6.63
2019-04-14T12:43:55.751Z,6.87
2019-04-14T12:46:32.295Z,7.20
2019-04-14T12:49:03.093Z,7.47
2019-04-14T12:51:47.663Z,6.97
2019-04-14T12:54:14.058Z,7.57
2019-04-14T12:56:40.167Z,7.70
2019-04-14T12:59:16.300Z,7.00
2019-04-14T13:01:59.168Z,8.20
2019-04-14T13:04:25.178Z,7.20
2019-04-14T13:06:51.202Z,7.83
2019-04-14T13:09:24.522Z,7.90
2019-04-14T13:11:50.588Z,7.70
2019-04-14T13:14:16.609Z,7.23
2019-04-14T13:16:42.646Z,6.93
2019-04-14T13:19:08.997Z,7.57
2019-04-14T13:21:35.114Z,7.30
2019-04-14T13:24:01.490Z,8.33
2019-04-14T13:26:27.511Z,7.80
2019-04-14T13:28:53.541Z,9.67
2019-04-14T13:31:19.880Z,7.47
2019-04-14T13:33:45.903Z,7.43
2019-04-14T13:36:11.907Z,7.30
2019-04-14T13:38:37.963Z,6.93
2019-04-14T13:41:03.984Z,7.97
2019-04-14T13:43:34.847Z,8.23
2019-04-14T13:46:01.329Z,8.73
2019-04-14T13:48:27.416Z,9.27
2019-04-14T13:50:53.419Z,8.23
2019-04-14T13:53:19.475Z,8.73
2019-04-14T13:55:45.483Z,8.60
2019-04-14T13:58:11.505Z,8.07
2019-04-14T14:00:43.512Z,7.97
2019-04-14T14:03:17.256Z,8.23
2019-04-14T14:05:43.745Z,8.00
2019-04-14T14:08:10.312Z,7.93
2019-04-14T14:10:36.425Z,7.77
2019-04-14T14:13:16.392Z,9.00
2019-04-14T14:16:00.938Z,8.13
2019-04-14T14:18:45.693Z,7.87
2019-04-14T14:21:16.398Z,8.43
2019-04-14T14:24:01.075Z,8.17
2019-04-14T14:26:29.407Z,9.37
2019-04-14T14:28:55.460Z,8.43
2019-04-14T14:31:22.000Z,9.40
2019-04-14T14:33:48.022Z,11.70
2019-04-14T14:36:14.027Z,8.13
2019-04-14T14:38:42.963Z,8.60
2019-04-14T14:41:13.283Z,7.70
2019-04-14T14:43:39.317Z,8.90
2019-04-14T14:46:10.262Z,8.80
2019-04-14T14:48:38.171Z,8.80
2019-04-14T14:51:18.099Z,8.70
2019-04-14T14:53:44.115Z,7.93
2019-04-14T14:56:10.159Z,13.73
2019-04-14T14:58:36.613Z,9.27
2019-04-14T15:01:04.360Z,8.83
2019-04-14T15:03:30.369Z,8.67
2019-04-14T15:05:56.424Z,7.77
2019-04-14T15:08:22.459Z,7.10
2019-04-14T15:10:48.853Z,8.53
2019-04-14T15:13:14.900Z,8.00
2019-04-14T15:15:40.926Z,9.90
2019-04-14T15:18:06.943Z,8.83
2019-04-14T15:20:33.800Z,8.10
2019-04-14T15:23:00.102Z,8.40
2019-04-14T15:25:26.115Z,8.10
2019-04-14T15:27:52.755Z,8.30
2019-04-14T15:30:20.666Z,6.87
2019-04-14T15:32:46.965Z,8.53
2019-04-14T15:35:12.988Z,7.13
2019-04-14T15:37:38.999Z,6.57
2019-04-14T15:40:05.328Z,6.47
2019-04-14T15:42:31.395Z,7.53
2019-04-14T15:44:57.441Z,7.33
2019-04-14T15:47:30.264Z,7.47
2019-04-14T15:49:59.999Z,7.03
2019-04-14T15:52:28.770Z,5.60
2019-04-14T15:55:05.397Z,7.13
2019-04-14T15:57:51.799Z,7.03
2019-04-14T16:00:30.635Z,6.50
2019-04-14T16:03:14.974Z,6.57
2019-04-14T16:05:48.823Z,6.00
2019-04-14T16:08:21.503Z,5.67
2019-04-14T16:11:08.615Z,7.80
2019-04-14T16:13:48.786Z,6.27
2019-04-14T16:19:42.231Z,5.63
2019-04-14T16:22:18.528Z,6.17
2019-04-14T16:24:41.963Z,6.43
2019-04-14T16:27:32.725Z,11.77
2019-04-14T16:30:15.480Z,6.00
2019-04-14T16:33:11.343Z,5.57
2019-04-14T16:35:38.788Z,6.30
2019-04-14T16:38:04.820Z,5.67
2019-04-14T16:40:30.867Z,6.37
2019-04-14T16:42:56.902Z,5.93
2019-04-14T16:45:22.972Z,5.83
2019-04-14T16:47:49.007Z,6.70
2019-04-14T16:50:15.339Z,5.83
2019-04-14T16:52:43.264Z,9.87
2019-04-14T16:55:17.403Z,5.80
2019-04-14T16:58:01.962Z,6.17
2019-04-14T17:00:41.991Z,6.07
2019-04-14T17:03:08.063Z,5.63
2019-04-14T17:05:35.063Z,6.00
2019-04-14T17:08:03.201Z,6.60
2019-04-14T17:10:29.218Z,13.90
2019-04-14T17:12:55.299Z,6.07
2019-04-14T17:15:37.045Z,5.87
2019-04-14T17:18:19.927Z,6.00
2019-04-14T17:20:51.995Z,7.27
2019-04-14T17:23:36.714Z,5.77
2019-04-14T17:26:14.914Z,5.63
2019-04-14T17:29:01.672Z,5.27
2019-04-14T17:31:32.999Z,5.57
2019-04-14T17:34:06.486Z,5.57
2019-04-14T17:36:41.533Z,5.27
2019-04-14T17:39:09.477Z,5.80
2019-04-14T17:41:58.018Z,5.50
2019-04-14T17:44:42.512Z,6.40
2019-04-14T17:47:25.799Z,5.30
2019-04-14T17:49:53.781Z,6.13
2019-04-14T17:52:36.947Z,7.37
2019-04-14T17:55:07.075Z,5.90
2019-04-14T17:57:52.504Z,6.67
2019-04-14T18:00:43.111Z,6.40
2019-04-14T18:03:13.892Z,5.83
2019-04-14T18:05:57.057Z,6.60
2019-04-14T18:08:27.579Z,7.20
2019-04-14T18:10:58.027Z,6.20
2019-04-14T18:13:28.577Z,9.20
2019-04-14T18:16:02.726Z,6.40
2019-04-14T18:18:45.130Z,5.90
2019-04-14T18:21:11.249Z,6.67
2019-04-14T18:23:37.305Z,6.37
2019-04-14T18:26:03.395Z,6.40
2019-04-14T18:28:49.752Z,6.73
2019-04-14T18:31:26.515Z,7.17
2019-04-14T18:33:55.360Z,6.20
2019-04-14T18:36:29.131Z,7.80
2019-04-14T18:39:08.987Z,6.97
2019-04-14T18:41:39.680Z,6.90
2019-04-14T18:44:10.593Z,6.33
2019-04-14T18:46:47.421Z,5.90
2019-04-14T18:49:30.451Z,8.00
2019-04-14T18:52:12.806Z,6.37
2019-04-14T18:54:54.003Z,6.37
2019-04-14T18:57:16.752Z,6.20
2019-04-14T18:59:47.983Z,9.00
2019-04-14T19:02:14.339Z,6.43
2019-04-14T19:04:40.421Z,6.93
2019-04-14T19:07:06.430Z,6.20
2019-04-14T19:09:32.464Z,6.50
2019-04-14T19:12:00.516Z,6.50
2019-04-14T19:14:28.516Z,6.50
2019-04-14T19:16:56.510Z,6.87
2019-04-14T19:19:27.747Z,6.30
2019-04-14T19:21:53.755Z,6.13
2019-04-14T19:24:19.785Z,6.53
2019-04-14T19:26:46.425Z,5.93
2019-04-14T19:29:12.442Z,6.77
2019-04-14T19:31:38.531Z,6.90
2019-04-14T19:34:04.882Z,5.13
2019-04-14T19:36:31.503Z,6.83
2019-04-14T19:39:03.599Z,5.37
2019-04-14T19:41:29.783Z,5.90
2019-04-14T19:43:55.833Z,6.10
2019-04-14T19:46:32.030Z,5.57
2019-04-14T19:49:03.326Z,6.50
2019-04-14T19:51:35.619Z,5.60
2019-04-14T19:54:04.811Z,6.43
2019-04-14T19:56:40.073Z,5.20
2019-04-14T19:59:07.628Z,5.47
2019-04-14T20:01:37.670Z,5.73
2019-04-14T20:04:03.703Z,6.20
2019-04-14T20:06:29.746Z,5.03
2019-04-14T20:08:55.763Z,5.63
2019-04-14T20:11:21.831Z,5.53
2019-04-14T20:13:47.934Z,21.87
2019-04-14T20:16:32.572Z,8.10
2019-04-14T20:19:10.540Z,5.60
2019-04-14T20:21:53.219Z,5.33
2019-04-14T20:24:24.286Z,4.70
2019-04-14T20:27:07.037Z,5.40
2019-04-14T20:29:34.960Z,6.80
2019-04-14T20:32:02.877Z,14.57
2019-04-14T20:34:28.910Z,6.30
2019-04-14T20:36:55.291Z,5.10
2019-04-14T20:39:23.517Z,5.03
2019-04-14T20:41:49.548Z,5.53
2019-04-14T20:44:15.601Z,5.67
2019-04-14T20:46:41.915Z,4.23
2019-04-14T20:49:08.049Z,4.57
2019-04-14T20:51:34.334Z,4.67
2019-04-14T20:54:00.372Z,3.77
2019-04-14T20:56:26.379Z,3.90
2019-04-14T20:58:52.415Z,3.90
2019-04-14T21:01:19.244Z,3.83
2019-04-14T21:03:52.716Z,3.47
2019-04-14T21:06:29.971Z,3.63
2019-04-14T21:08:58.143Z,4.00
2019-04-14T21:11:34.895Z,4.10
2019-04-14T21:14:14.905Z,3.20
2019-04-14T21:16:57.867Z,3.40
2019-04-14T21:19:25.809Z,3.30
2019-04-14T21:22:04.793Z,3.40
2019-04-14T21:24:41.678Z,3.30
2019-04-14T21:27:24.754Z,3.30
2019-04-14T21:29:58.267Z,3.60
2019-04-14T21:32:26.186Z,2.93
2019-04-14T21:35:00.092Z,3.33
2019-04-14T21:37:29.285Z,3.50
2019-04-14T21:40:09.858Z,2.73
2019-04-14T21:42:36.079Z,3.07
2019-04-14T21:45:03.783Z,2.90
2019-04-14T21:47:44.819Z,3.37
2019-04-14T21:50:10.829Z,3.00
2019-04-14T21:52:44.559Z,2.53
2019-04-14T21:55:10.583Z,3.67
2019-04-14T21:57:44.143Z,3.70
2019-04-14T22:00:30.260Z,2.93
2019-04-14T22:02:58.321Z,3.57
2019-04-14T22:05:28.884Z,2.97
2019-04-14T22:08:03.193Z,3.37
2019-04-14T22:10:39.109Z,3.30
2019-04-14T22:13:05.367Z,3.07
2019-04-14T22:15:31.380Z,3.30
2019-04-14T22:17:57.647Z,3.23
2019-04-14T22:20:23.735Z,3.13
2019-04-14T22:22:49.848Z,3.17
2019-04-14T22:25:15.887Z,3.53
2019-04-14T22:27:41.911Z,3.07
2019-04-14T22:30:08.232Z,3.00
2019-04-14T22:32:34.266Z,3.07
2019-04-14T22:35:22.196Z,3.10
2019-04-14T22:37:50.158Z,3.00
2019-04-14T22:40:16.227Z,3.37
2019-04-14T22:42:43.065Z,3.13
2019-04-14T22:45:09.100Z,3.27
2019-04-14T22:47:35.128Z,3.63
2019-04-14T22:50:01.464Z,3.20
2019-04-14T22:52:27.948Z,3.30
2019-04-14T22:54:54.273Z,3.93
2019-04-14T22:57:23.071Z,3.77
2019-04-14T22:59:49.086Z,3.90
2019-04-14T23:02:27.790Z,3.83
2019-04-14T23:04:58.387Z,3.57
2019-04-14T23:07:41.478Z,3.90
2019-04-14T23:10:09.407Z,3.70
2019-04-14T23:12:39.245Z,3.80
2019-04-14T23:15:15.868Z,4.10
2019-04-14T23:17:56.271Z,3.20
2019-04-14T23:20:39.127Z,3.83
2019-04-14T23:23:24.019Z,3.70
2019-04-14T23:25:50.055Z,3.73
2019-04-14T23:28:16.103Z,4.17
2019-04-14T23:30:42.209Z,3.83
2019-04-14T23:33:08.796Z,4.80
2019-04-14T23:35:34.862Z,5.47
2019-04-14T23:38:00.875Z,3.63
2019-04-14T23:40:27.071Z,3.80
2019-04-14T23:42:53.678Z,3.80
2019-04-14T23:45:19.730Z,4.00
2019-04-14T23:47:45.777Z,4.00
2019-04-14T23:50:11.796Z,4.17
2019-04-14T23:52:37.839Z,3.63
2019-04-14T23:55:06.888Z,2.83
2019-04-14T23:57:33.036Z,3.13
